Albion, California
Current Conditions -  °F | °C
As of 2:11 PM on Thursday 23 Oct 2014 (Local Time) from KUKI Reporting Station
Overcast Overcast  
Wind Chill: 64°   Ceiling: 2400
Heat Index: 64°   Visibility: 10mi
Dew Point: 57°   Wind: 7mph
Humidity: 78%   Direction: 140°SE
Pressure: 30.04"   Gusts: NA
Location:  39.22°N, 123.77°W
Report Text: KUKI 232111Z AUTO 14006KT 10SM BKN024 OVC070 18/14 A3004 RMK AO2 RAB2059E08 P0000 T01780139
Loading
Personal Weather Stations






























Interactive Weather Map
Tropical Storm Tracking
New forecast layout! Learn more

10-Day Weather Forecast

Advertisements
Track Severe Weather on mobile